createdAt,value
2023-06-21T00:00:25.164Z,19.03
2023-06-21T00:01:28.944Z,19.02
2023-06-21T00:02:33.311Z,19.00
2023-06-21T00:03:37.172Z,19.00
2023-06-21T00:04:40.408Z,18.99
2023-06-21T00:05:43.909Z,18.99
2023-06-21T00:06:50.258Z,18.98
2023-06-21T00:07:55.330Z,18.98
2023-06-21T00:08:59.524Z,18.98
2023-06-21T00:10:03.566Z,18.94
2023-06-21T00:11:06.733Z,18.91
2023-06-21T00:12:10.324Z,18.90
2023-06-21T00:13:13.703Z,18.87
2023-06-21T00:14:17.476Z,18.86
2023-06-21T00:15:21.995Z,18.80
2023-06-21T00:16:25.616Z,18.82
2023-06-21T00:17:28.783Z,18.80
2023-06-21T00:18:32.050Z,18.79
2023-06-21T00:19:35.693Z,18.78
2023-06-21T00:20:39.576Z,18.80
2023-06-21T00:21:43.167Z,18.78
2023-06-21T00:22:50.071Z,18.76
2023-06-21T00:23:54.671Z,18.76
2023-06-21T00:25:01.327Z,18.74
2023-06-21T00:26:04.331Z,18.75
2023-06-21T00:27:08.098Z,18.73
2023-06-21T00:28:11.862Z,18.73
2023-06-21T00:29:15.051Z,18.75
2023-06-21T00:30:18.449Z,18.72
2023-06-21T00:31:22.338Z,18.71
2023-06-21T00:32:26.396Z,18.69
2023-06-21T00:33:30.036Z,18.66
2023-06-21T00:34:33.625Z,18.67
2023-06-21T00:35:36.679Z,18.66
2023-06-21T00:36:43.669Z,18.65
2023-06-21T00:37:47.629Z,18.63
2023-06-21T00:38:51.268Z,18.61
2023-06-21T00:39:55.185Z,18.59
2023-06-21T00:40:59.032Z,18.57
2023-06-21T00:42:02.618Z,18.56
2023-06-21T00:43:06.529Z,18.53
2023-06-21T00:44:10.260Z,18.54
2023-06-21T00:45:18.103Z,18.53
2023-06-21T00:46:21.905Z,18.51
2023-06-21T00:47:25.290Z,18.51
2023-06-21T00:48:30.604Z,18.47
2023-06-21T00:49:35.621Z,18.48
2023-06-21T00:50:42.724Z,18.45
2023-06-21T00:51:46.440Z,18.43
2023-06-21T00:52:49.884Z,18.43
2023-06-21T00:53:53.814Z,18.45
2023-06-21T00:54:58.421Z,18.45
2023-06-21T00:56:03.991Z,18.44
2023-06-21T00:57:07.556Z,18.44
2023-06-21T00:58:11.492Z,18.43
2023-06-21T00:59:15.741Z,18.42
2023-06-21T01:00:23.296Z,18.41
2023-06-21T01:01:28.695Z,18.41
2023-06-21T01:02:33.104Z,18.42
2023-06-21T01:03:36.436Z,18.39
2023-06-21T01:04:39.785Z,18.41
2023-06-21T01:05:43.181Z,18.37
2023-06-21T01:06:51.371Z,18.37
2023-06-21T01:08:16.876Z,18.36
2023-06-21T01:09:23.097Z,18.34
2023-06-21T01:10:57.394Z,18.31
2023-06-21T01:12:17.326Z,18.29
2023-06-21T01:13:39.057Z,18.28
2023-06-21T01:15:30.167Z,18.28
2023-06-21T01:16:47.819Z,18.29
2023-06-21T01:17:53.265Z,18.29
2023-06-21T01:18:56.900Z,18.26
2023-06-21T01:20:00.858Z,18.25
2023-06-21T01:21:06.823Z,18.24
2023-06-21T01:22:48.465Z,18.24
2023-06-21T01:24:21.062Z,18.23
2023-06-21T01:25:52.932Z,18.21
2023-06-21T01:27:25.470Z,18.23
2023-06-21T01:29:00.879Z,18.24
2023-06-21T01:30:04.585Z,18.24
2023-06-21T01:31:08.850Z,18.23
2023-06-21T01:32:12.527Z,18.24
2023-06-21T01:33:18.458Z,18.23
2023-06-21T01:34:22.301Z,18.22
2023-06-21T01:35:26.377Z,18.23
2023-06-21T01:36:29.326Z,18.22
2023-06-21T01:37:32.552Z,18.20
2023-06-21T01:38:35.514Z,18.20
2023-06-21T01:39:39.080Z,18.20
2023-06-21T01:40:42.831Z,18.16
2023-06-21T01:41:46.360Z,18.14
2023-06-21T01:42:50.323Z,18.12
2023-06-21T01:43:54.704Z,18.11
2023-06-21T01:44:58.249Z,18.09
2023-06-21T01:46:02.331Z,18.09
2023-06-21T01:47:06.162Z,18.08
2023-06-21T01:48:09.248Z,18.07
2023-06-21T01:49:12.446Z,18.06
2023-06-21T01:50:15.564Z,18.06
2023-06-21T01:51:19.474Z,18.08
2023-06-21T01:52:22.589Z,18.09
2023-06-21T01:53:27.172Z,18.11
2023-06-21T01:54:32.474Z,18.11
2023-06-21T01:55:35.696Z,18.13
2023-06-21T01:56:39.726Z,18.11
2023-06-21T01:57:43.046Z,18.10
2023-06-21T01:58:48.840Z,18.08
2023-06-21T01:59:52.568Z,18.07
2023-06-21T02:00:57.934Z,18.08
2023-06-21T02:02:02.624Z,18.07
2023-06-21T02:03:07.629Z,18.02
2023-06-21T02:04:11.412Z,17.92
2023-06-21T02:05:15.602Z,17.82
2023-06-21T02:06:19.314Z,17.73
2023-06-21T02:07:23.013Z,17.61
2023-06-21T02:08:27.013Z,17.60
2023-06-21T02:09:30.805Z,17.56
2023-06-21T02:10:34.487Z,17.49
2023-06-21T02:11:38.244Z,17.47
2023-06-21T02:12:45.443Z,17.44
2023-06-21T02:13:53.788Z,17.44
2023-06-21T02:14:57.342Z,17.43
2023-06-21T02:16:00.466Z,17.43
2023-06-21T02:17:04.751Z,17.41
2023-06-21T02:18:08.799Z,17.39
2023-06-21T02:19:11.761Z,17.40
2023-06-21T02:20:15.979Z,17.39
2023-06-21T02:21:20.966Z,17.39
2023-06-21T02:22:23.964Z,17.39
2023-06-21T02:23:30.895Z,17.38
2023-06-21T02:24:34.002Z,17.37
2023-06-21T02:25:38.614Z,17.37
2023-06-21T02:26:41.737Z,17.39
2023-06-21T02:27:48.998Z,17.42
2023-06-21T02:28:52.546Z,17.42
2023-06-21T02:29:56.279Z,17.44
2023-06-21T02:30:59.642Z,17.43
2023-06-21T02:32:03.334Z,17.43
2023-06-21T02:33:07.089Z,17.44
2023-06-21T02:34:11.948Z,17.43
2023-06-21T02:35:15.613Z,17.45
2023-06-21T02:36:19.641Z,17.46
2023-06-21T02:37:23.164Z,17.50
2023-06-21T02:38:29.333Z,17.56
2023-06-21T02:39:32.446Z,17.60
2023-06-21T02:40:35.632Z,17.62
2023-06-21T02:41:39.309Z,17.66
2023-06-21T02:42:42.921Z,17.69
2023-06-21T02:43:47.412Z,17.72
2023-06-21T02:44:51.340Z,17.73
2023-06-21T02:45:54.957Z,17.75
2023-06-21T02:46:58.898Z,17.76
2023-06-21T02:48:02.509Z,17.80
2023-06-21T02:49:06.244Z,17.82
2023-06-21T02:50:09.766Z,17.86
2023-06-21T02:51:13.324Z,17.87
2023-06-21T02:52:16.689Z,17.86
2023-06-21T02:53:20.283Z,17.86
2023-06-21T02:54:23.488Z,17.88
2023-06-21T02:55:27.223Z,17.89
2023-06-21T02:56:32.389Z,17.89
2023-06-21T02:57:36.128Z,17.89
2023-06-21T02:58:39.681Z,17.91
2023-06-21T02:59:44.302Z,17.90
2023-06-21T03:00:47.648Z,17.90
2023-06-21T03:01:51.586Z,17.89
2023-06-21T03:02:55.161Z,17.87
2023-06-21T03:03:59.587Z,17.89
2023-06-21T03:05:03.080Z,17.88
2023-06-21T03:06:07.047Z,17.89
2023-06-21T03:07:10.134Z,17.89
2023-06-21T03:08:13.879Z,17.89
2023-06-21T03:09:19.121Z,17.90
2023-06-21T03:10:23.126Z,17.94
2023-06-21T03:11:26.929Z,17.94
2023-06-21T03:12:30.726Z,17.94
2023-06-21T03:13:34.452Z,17.96
2023-06-21T03:14:41.050Z,17.96
2023-06-21T03:15:45.955Z,17.97
2023-06-21T03:16:49.222Z,17.98
2023-06-21T03:17:52.678Z,18.01
2023-06-21T03:18:56.163Z,18.03
2023-06-21T03:19:59.758Z,18.05
2023-06-21T03:21:03.489Z,18.06
2023-06-21T03:22:07.744Z,18.06
2023-06-21T03:23:10.928Z,18.09
2023-06-21T03:24:14.133Z,18.11
2023-06-21T03:25:18.625Z,18.13
2023-06-21T03:26:23.910Z,18.15
2023-06-21T03:27:28.696Z,18.15
2023-06-21T03:28:33.270Z,18.14
2023-06-21T03:29:36.533Z,18.13
2023-06-21T03:30:39.800Z,18.12
2023-06-21T03:31:43.727Z,18.10
2023-06-21T03:32:50.400Z,18.08
2023-06-21T03:33:55.558Z,18.07
2023-06-21T03:35:00.977Z,18.07
2023-06-21T03:36:05.516Z,18.06
2023-06-21T03:37:10.940Z,18.06
2023-06-21T03:38:14.332Z,18.07
2023-06-21T03:39:19.267Z,18.08
2023-06-21T03:40:22.507Z,18.10
2023-06-21T03:41:26.025Z,18.14
2023-06-21T03:42:30.928Z,18.15
2023-06-21T03:43:35.721Z,18.16
2023-06-21T03:44:43.875Z,18.18
2023-06-21T03:45:47.600Z,18.19
2023-06-21T03:46:51.049Z,18.20
2023-06-21T03:47:54.936Z,18.21
2023-06-21T03:49:01.294Z,18.24
2023-06-21T03:50:05.725Z,18.23
2023-06-21T03:51:10.219Z,18.24
2023-06-21T03:52:14.926Z,18.23
2023-06-21T03:53:18.684Z,18.22
2023-06-21T03:54:22.085Z,18.23
2023-06-21T03:55:25.436Z,18.24
2023-06-21T03:56:29.778Z,18.26
2023-06-21T03:57:32.707Z,18.27
2023-06-21T03:58:36.112Z,18.28
2023-06-21T03:59:39.998Z,18.28
2023-06-21T04:00:42.973Z,18.29
2023-06-21T04:01:45.837Z,18.26
2023-06-21T04:02:49.296Z,18.29
2023-06-21T04:03:52.412Z,18.29
2023-06-21T04:04:55.712Z,18.27
2023-06-21T04:05:59.978Z,18.27
2023-06-21T04:07:03.445Z,18.25
2023-06-21T04:08:06.930Z,18.24
2023-06-21T04:09:10.614Z,18.24
2023-06-21T04:10:14.990Z,18.24
2023-06-21T04:11:18.582Z,18.24
2023-06-21T04:12:22.885Z,18.26
2023-06-21T04:13:26.925Z,18.27
2023-06-21T04:14:30.188Z,18.28
2023-06-21T04:15:36.541Z,18.30
2023-06-21T04:16:40.169Z,18.31
2023-06-21T04:17:44.269Z,18.32
2023-06-21T04:18:47.403Z,18.30
2023-06-21T04:19:50.927Z,18.28
2023-06-21T04:20:54.550Z,18.26
2023-06-21T04:21:58.179Z,18.25
2023-06-21T04:23:01.722Z,18.25
2023-06-21T04:24:05.691Z,18.24
2023-06-21T04:25:10.351Z,18.22
2023-06-21T04:26:14.790Z,18.21
2023-06-21T04:27:19.594Z,18.22
2023-06-21T04:28:26.788Z,18.21
2023-06-21T04:29:32.016Z,18.21
2023-06-21T04:30:35.140Z,18.24
2023-06-21T04:31:39.637Z,18.25
2023-06-21T04:32:49.304Z,18.27
2023-06-21T04:33:55.474Z,18.30
2023-06-21T04:34:58.672Z,18.32
2023-06-21T04:36:01.858Z,18.34
2023-06-21T04:37:08.678Z,18.33
2023-06-21T04:38:12.298Z,18.34
2023-06-21T04:39:19.428Z,18.35
2023-06-21T04:40:25.540Z,18.36
2023-06-21T04:41:30.339Z,18.36
2023-06-21T04:42:33.757Z,18.36
2023-06-21T04:43:38.177Z,18.36
2023-06-21T04:44:41.619Z,18.36
2023-06-21T04:45:44.537Z,18.37
2023-06-21T04:46:50.849Z,18.37
2023-06-21T04:47:54.814Z,18.38
2023-06-21T04:48:58.467Z,18.40
2023-06-21T04:50:19.034Z,18.39
2023-06-21T04:51:25.297Z,18.37
2023-06-21T04:52:30.277Z,18.32
2023-06-21T04:53:34.466Z,18.33
2023-06-21T04:54:38.367Z,18.33
2023-06-21T04:55:46.650Z,18.33
2023-06-21T04:56:51.714Z,18.32
2023-06-21T04:57:55.922Z,18.33
2023-06-21T04:58:59.423Z,18.35
2023-06-21T05:00:09.359Z,18.36
2023-06-21T05:01:15.814Z,18.35
2023-06-21T05:02:19.338Z,18.34
2023-06-21T05:03:23.375Z,18.32
2023-06-21T05:04:27.216Z,18.29
2023-06-21T05:05:32.133Z,18.23
2023-06-21T05:06:38.797Z,18.21
2023-06-21T05:07:42.322Z,18.17
2023-06-21T05:08:45.884Z,18.17
2023-06-21T05:09:49.165Z,18.17
2023-06-21T05:10:53.354Z,18.18
2023-06-21T05:11:56.784Z,18.20
2023-06-21T05:13:00.100Z,18.21
2023-06-21T05:14:03.866Z,18.24
2023-06-21T05:15:07.816Z,18.24
2023-06-21T05:16:11.610Z,18.25
2023-06-21T05:17:17.995Z,18.26
2023-06-21T05:18:21.242Z,18.28
2023-06-21T05:19:24.433Z,18.30
2023-06-21T05:20:28.024Z,18.31
2023-06-21T05:21:31.879Z,18.30
2023-06-21T05:22:35.779Z,18.30
2023-06-21T05:23:38.891Z,18.29
2023-06-21T05:24:42.654Z,18.31
2023-06-21T05:25:46.487Z,18.30
2023-06-21T05:26:49.828Z,18.29
2023-06-21T05:27:53.052Z,18.28
2023-06-21T05:28:56.801Z,18.28
2023-06-21T05:30:00.284Z,18.27
2023-06-21T05:31:03.982Z,18.27
2023-06-21T05:32:08.209Z,18.29
2023-06-21T05:33:11.846Z,18.28
2023-06-21T05:34:15.104Z,18.26
2023-06-21T05:35:18.243Z,18.23
2023-06-21T05:36:21.786Z,18.23
2023-06-21T05:37:25.072Z,18.23
2023-06-21T05:38:28.854Z,18.23
2023-06-21T05:39:32.160Z,18.24
2023-06-21T05:40:36.286Z,18.25
2023-06-21T05:41:40.172Z,18.25
2023-06-21T05:42:43.573Z,18.28
2023-06-21T05:43:47.364Z,18.29
2023-06-21T05:44:50.515Z,18.30
2023-06-21T05:45:53.666Z,18.33
2023-06-21T05:46:57.157Z,18.34
2023-06-21T05:48:01.761Z,18.34
2023-06-21T05:49:05.245Z,18.34
2023-06-21T05:50:09.114Z,18.35
2023-06-21T05:51:12.457Z,18.35
2023-06-21T05:52:16.071Z,18.35
2023-06-21T05:53:19.288Z,18.37
2023-06-21T05:54:22.500Z,18.35
2023-06-21T05:55:26.435Z,18.34
2023-06-21T05:56:30.729Z,18.31
2023-06-21T05:57:34.421Z,18.28
2023-06-21T05:58:37.987Z,18.27
2023-06-21T05:59:43.198Z,18.27
2023-06-21T06:00:46.730Z,18.25
2023-06-21T06:01:50.459Z,18.25
2023-06-21T06:02:54.201Z,18.25
2023-06-21T06:03:57.578Z,18.26
2023-06-21T06:05:00.646Z,18.28
2023-06-21T06:06:04.202Z,18.30
2023-06-21T06:07:07.477Z,18.27
2023-06-21T06:08:11.061Z,18.28
2023-06-21T06:09:14.130Z,18.30
2023-06-21T06:10:17.518Z,18.31
2023-06-21T06:11:21.285Z,18.33
2023-06-21T06:12:24.730Z,18.34
2023-06-21T06:13:30.286Z,18.39
2023-06-21T06:14:33.389Z,18.42
2023-06-21T06:15:36.698Z,18.47
2023-06-21T06:16:40.363Z,18.55
2023-06-21T06:17:43.817Z,18.62
2023-06-21T06:18:47.518Z,18.70
2023-06-21T06:19:50.929Z,18.79
2023-06-21T06:20:54.786Z,18.90
2023-06-21T06:21:58.395Z,19.06
2023-06-21T06:23:03.404Z,19.20
2023-06-21T06:24:06.831Z,19.54
2023-06-21T06:25:11.261Z,20.07
2023-06-21T06:26:14.753Z,20.92
2023-06-21T06:27:18.372Z,21.91
2023-06-21T06:28:21.780Z,22.89
2023-06-21T06:29:25.781Z,23.85
2023-06-21T06:30:29.742Z,24.44
2023-06-21T06:31:33.917Z,24.79
2023-06-21T06:32:37.147Z,24.85
2023-06-21T06:33:40.723Z,24.88
2023-06-21T06:34:44.275Z,24.75
2023-06-21T06:35:47.406Z,24.58
2023-06-21T06:37:06.688Z,24.38
2023-06-21T06:38:13.912Z,24.08
2023-06-21T06:39:17.067Z,23.90
2023-06-21T06:40:20.615Z,23.76
2023-06-21T06:41:23.924Z,23.60
2023-06-21T06:42:29.900Z,23.44
2023-06-21T06:43:34.654Z,23.29
2023-06-21T06:44:39.213Z,23.13
2023-06-21T06:45:42.447Z,22.97
2023-06-21T06:46:45.318Z,22.82
2023-06-21T06:47:49.610Z,22.69
2023-06-21T06:48:53.519Z,22.52
2023-06-21T06:49:57.364Z,22.33
2023-06-21T06:51:01.285Z,22.23
2023-06-21T06:52:04.913Z,22.10
2023-06-21T06:53:10.040Z,21.96
2023-06-21T06:54:13.239Z,21.86
2023-06-21T06:55:16.309Z,21.78
2023-06-21T06:56:19.196Z,21.70
2023-06-21T06:57:35.169Z,21.66
2023-06-21T06:58:40.653Z,21.61
2023-06-21T06:59:44.083Z,21.60
2023-06-21T07:00:47.970Z,21.56
2023-06-21T07:01:52.324Z,21.52
2023-06-21T07:02:58.811Z,21.47
2023-06-21T07:04:02.355Z,21.44
2023-06-21T07:05:06.321Z,21.40
2023-06-21T07:06:09.779Z,21.35
2023-06-21T07:07:13.045Z,21.31
2023-06-21T07:08:16.524Z,21.31
2023-06-21T07:09:20.281Z,21.31
2023-06-21T07:10:24.252Z,21.30
2023-06-21T07:11:28.099Z,21.33
2023-06-21T07:12:31.961Z,21.33
2023-06-21T07:13:34.996Z,21.33
2023-06-21T07:14:38.498Z,21.35
2023-06-21T07:15:42.439Z,21.36
2023-06-21T07:16:45.809Z,21.35
2023-06-21T07:17:49.741Z,21.35
2023-06-21T07:18:53.360Z,21.32
2023-06-21T07:19:57.081Z,21.30
2023-06-21T07:21:01.019Z,21.29
2023-06-21T07:22:04.558Z,21.30
2023-06-21T07:23:07.639Z,21.29
2023-06-21T07:24:10.981Z,21.28
2023-06-21T07:25:14.307Z,21.31
2023-06-21T07:26:17.520Z,21.33
2023-06-21T07:27:21.987Z,21.35
2023-06-21T07:28:25.756Z,21.38
2023-06-21T07:29:28.969Z,21.39
2023-06-21T07:30:32.861Z,21.41
2023-06-21T07:31:36.203Z,21.41
2023-06-21T07:32:39.523Z,21.41
2023-06-21T07:33:43.362Z,21.43
2023-06-21T07:34:47.167Z,21.47
2023-06-21T07:35:50.695Z,21.52
2023-06-21T07:36:54.140Z,21.59
2023-06-21T07:37:57.977Z,21.69
2023-06-21T07:39:01.928Z,21.77
2023-06-21T07:40:07.364Z,21.87
2023-06-21T07:41:10.419Z,21.98
2023-06-21T07:42:14.902Z,22.12
2023-06-21T07:43:19.115Z,22.20
2023-06-21T07:44:22.193Z,22.33
2023-06-21T07:45:25.616Z,22.43
2023-06-21T07:46:28.985Z,22.64
2023-06-21T07:47:31.954Z,23.01
2023-06-21T07:48:36.267Z,23.19
2023-06-21T07:49:39.883Z,23.31
2023-06-21T07:50:43.439Z,23.53
2023-06-21T07:51:47.888Z,23.78
2023-06-21T07:52:51.484Z,23.89
2023-06-21T07:53:54.897Z,23.96
2023-06-21T07:54:58.228Z,23.95
2023-06-21T07:56:04.253Z,23.85
2023-06-21T07:57:07.570Z,23.67
2023-06-21T07:58:11.750Z,23.60
2023-06-21T07:59:15.051Z,23.40
2023-06-21T08:00:18.808Z,23.24
2023-06-21T08:01:22.678Z,23.13
2023-06-21T08:02:26.377Z,23.03
2023-06-21T08:03:30.021Z,22.98
2023-06-21T08:04:33.572Z,22.93
2023-06-21T08:05:37.135Z,22.78
2023-06-21T08:06:40.931Z,22.62
2023-06-21T08:07:44.680Z,22.56
2023-06-21T08:08:48.071Z,22.47
2023-06-21T08:09:50.914Z,22.41
2023-06-21T08:10:54.682Z,22.32
2023-06-21T08:11:58.248Z,22.30
2023-06-21T08:13:03.530Z,22.27
2023-06-21T08:14:06.650Z,22.11
2023-06-21T08:15:10.224Z,22.11
2023-06-21T08:16:13.947Z,21.99
2023-06-21T08:17:17.782Z,21.86
2023-06-21T08:18:21.787Z,21.59
2023-06-21T08:19:25.524Z,21.37
2023-06-21T08:20:28.799Z,21.34
2023-06-21T08:21:31.862Z,21.23
2023-06-21T08:22:35.055Z,21.27
2023-06-21T08:23:38.700Z,21.31
2023-06-21T08:24:42.276Z,21.36
2023-06-21T08:25:47.362Z,21.39
2023-06-21T08:26:50.780Z,21.38
2023-06-21T08:27:54.013Z,21.37
2023-06-21T08:28:57.895Z,21.32
2023-06-21T08:30:01.139Z,21.33
2023-06-21T08:31:04.919Z,21.32
2023-06-21T08:32:08.322Z,21.19
2023-06-21T08:33:14.230Z,21.06
2023-06-21T08:34:17.705Z,20.97
2023-06-21T08:35:20.975Z,20.92
2023-06-21T08:36:24.990Z,20.88
2023-06-21T08:37:28.476Z,20.80
2023-06-21T08:38:32.018Z,20.62
2023-06-21T08:39:35.310Z,20.64
2023-06-21T08:40:39.631Z,20.60
2023-06-21T08:41:43.068Z,20.54
2023-06-21T08:42:46.664Z,20.53
2023-06-21T08:43:50.276Z,20.50
2023-06-21T08:44:54.755Z,20.49
2023-06-21T08:45:58.112Z,20.49
2023-06-21T08:47:02.085Z,20.48
2023-06-21T08:48:07.031Z,20.49
2023-06-21T08:49:10.866Z,20.50
2023-06-21T08:50:15.858Z,20.54
2023-06-21T08:51:19.206Z,20.61
2023-06-21T08:52:23.080Z,20.65
2023-06-21T08:53:51.963Z,20.66
2023-06-21T08:55:02.535Z,20.67
2023-06-21T08:56:06.626Z,20.68
2023-06-21T08:57:16.627Z,20.69
2023-06-21T08:58:22.498Z,20.72
2023-06-21T08:59:37.437Z,20.75
2023-06-21T09:00:49.385Z,20.72
2023-06-21T09:02:24.669Z,20.56
2023-06-21T09:03:34.366Z,20.46
2023-06-21T09:04:48.333Z,20.42
2023-06-21T09:05:52.290Z,20.29
2023-06-21T09:06:55.770Z,20.27
2023-06-21T09:07:59.506Z,20.29
2023-06-21T09:09:02.427Z,20.24
2023-06-21T09:10:06.015Z,20.27
2023-06-21T09:11:13.076Z,20.22
2023-06-21T09:12:18.644Z,20.08
2023-06-21T09:13:23.416Z,20.04
2023-06-21T09:14:32.857Z,20.00
2023-06-21T09:15:35.903Z,19.97
2023-06-21T09:16:39.186Z,19.93
2023-06-21T09:17:42.066Z,19.91
2023-06-21T09:18:46.241Z,19.90
2023-06-21T09:19:49.529Z,19.95
2023-06-21T09:20:53.015Z,19.96
2023-06-21T09:21:58.577Z,20.00
2023-06-21T09:23:01.938Z,19.92
2023-06-21T09:24:05.634Z,19.95
2023-06-21T09:25:09.485Z,19.87
2023-06-21T09:26:12.801Z,19.87
2023-06-21T09:27:16.522Z,19.87
2023-06-21T09:28:20.372Z,19.99
2023-06-21T09:29:24.004Z,20.08
2023-06-21T09:30:36.727Z,20.17
2023-06-21T09:31:41.744Z,20.18
2023-06-21T09:32:44.938Z,20.23
2023-06-21T09:33:49.567Z,20.29
2023-06-21T09:34:53.448Z,20.35
2023-06-21T09:35:58.396Z,20.43
2023-06-21T09:37:01.457Z,20.52
2023-06-21T09:38:28.038Z,20.59
2023-06-21T09:39:31.567Z,20.72
2023-06-21T09:40:43.814Z,20.83
2023-06-21T09:41:47.585Z,20.89
2023-06-21T09:42:50.953Z,21.06
2023-06-21T09:43:54.889Z,21.18
2023-06-21T09:44:58.129Z,21.20
2023-06-21T09:46:08.794Z,21.24
2023-06-21T09:47:12.290Z,21.40
2023-06-21T09:48:18.267Z,21.47
2023-06-21T09:49:21.367Z,21.38
2023-06-21T09:50:24.862Z,21.54
2023-06-21T09:51:28.462Z,21.78
2023-06-21T09:52:32.264Z,21.97
2023-06-21T09:53:35.389Z,22.19
2023-06-21T09:54:46.086Z,22.35
2023-06-21T09:55:50.591Z,22.72
2023-06-21T09:56:54.355Z,23.11
2023-06-21T09:57:59.482Z,23.57
2023-06-21T09:59:03.528Z,24.02
2023-06-21T10:00:08.132Z,24.42
2023-06-21T10:01:40.769Z,24.85
2023-06-21T10:02:45.216Z,25.04
2023-06-21T10:03:49.167Z,25.16
2023-06-21T10:04:58.768Z,25.25
2023-06-21T10:06:04.062Z,25.29
2023-06-21T10:07:07.376Z,25.30
2023-06-21T10:08:11.192Z,25.34
2023-06-21T10:09:14.460Z,25.40
2023-06-21T10:10:17.647Z,25.49
2023-06-21T10:11:21.821Z,25.47
2023-06-21T10:12:25.816Z,25.46
2023-06-21T10:13:36.097Z,25.47
2023-06-21T10:14:40.605Z,25.54
2023-06-21T10:15:47.737Z,25.62
2023-06-21T10:16:55.281Z,25.79
2023-06-21T10:18:05.434Z,25.99
2023-06-21T10:19:10.102Z,26.26
2023-06-21T10:20:16.274Z,26.54
2023-06-21T10:21:21.663Z,26.80
2023-06-21T10:22:25.277Z,27.18
2023-06-21T10:23:30.806Z,27.51
2023-06-21T10:24:51.143Z,27.87
2023-06-21T10:25:54.371Z,28.36
2023-06-21T10:26:57.857Z,28.83
2023-06-21T10:28:01.864Z,29.24
2023-06-21T10:29:05.049Z,29.58
2023-06-21T10:30:09.494Z,29.89
2023-06-21T10:31:13.952Z,30.14
2023-06-21T10:32:17.462Z,30.38
2023-06-21T10:33:21.215Z,30.54
2023-06-21T10:34:24.989Z,30.80
2023-06-21T10:35:28.796Z,30.93
2023-06-21T10:36:33.552Z,31.39
2023-06-21T10:37:52.005Z,31.87
2023-06-21T10:38:56.036Z,32.08
2023-06-21T10:40:10.035Z,32.16
2023-06-21T10:41:18.796Z,32.24
2023-06-21T10:42:22.421Z,32.25
2023-06-21T10:43:26.034Z,32.36
2023-06-21T10:44:30.999Z,32.57
2023-06-21T10:45:35.398Z,32.51
2023-06-21T10:46:43.460Z,32.36
2023-06-21T10:47:47.497Z,32.19
2023-06-21T10:48:51.311Z,32.02
2023-06-21T10:50:00.620Z,32.03
2023-06-21T10:51:04.752Z,31.81
2023-06-21T10:52:08.781Z,31.61
2023-06-21T10:53:13.917Z,31.19
2023-06-21T10:54:18.435Z,30.86
2023-06-21T10:55:23.694Z,30.73
2023-06-21T10:56:26.832Z,30.79
2023-06-21T10:57:31.151Z,30.72
2023-06-21T10:58:34.205Z,30.75
2023-06-21T10:59:37.292Z,31.28
2023-06-21T11:00:40.577Z,31.63
2023-06-21T11:01:44.017Z,31.73
2023-06-21T11:02:47.549Z,31.96
2023-06-21T11:03:50.727Z,32.27
2023-06-21T11:05:21.318Z,32.15
2023-06-21T11:06:35.445Z,31.96
2023-06-21T11:08:07.125Z,31.54
2023-06-21T11:09:14.201Z,30.94
2023-06-21T11:10:17.725Z,30.65
2023-06-21T11:11:31.075Z,30.45
2023-06-21T11:12:37.168Z,30.29
2023-06-21T11:13:40.829Z,30.62
2023-06-21T11:14:44.289Z,30.74
2023-06-21T11:15:48.367Z,30.80
2023-06-21T11:16:54.807Z,30.74
2023-06-21T11:18:01.080Z,30.77
2023-06-21T11:19:15.584Z,30.74
2023-06-21T11:20:24.521Z,30.68
2023-06-21T11:21:46.652Z,30.60
2023-06-21T11:23:00.313Z,30.69
2023-06-21T11:24:29.828Z,30.60
2023-06-21T11:25:33.422Z,30.55
2023-06-21T11:26:55.392Z,30.46
2023-06-21T11:28:19.798Z,30.17
2023-06-21T11:29:23.552Z,30.26
2023-06-21T11:30:28.438Z,30.34
2023-06-21T11:31:40.314Z,30.39
2023-06-21T11:32:59.222Z,30.32
2023-06-21T11:34:07.557Z,30.30
2023-06-21T11:35:12.802Z,30.37
2023-06-21T11:36:18.160Z,30.28
2023-06-21T11:37:37.340Z,30.36
2023-06-21T11:38:49.695Z,30.48
2023-06-21T11:40:03.062Z,30.73
2023-06-21T11:41:43.810Z,30.96
2023-06-21T11:42:48.222Z,31.07
2023-06-21T11:43:57.924Z,31.12
2023-06-21T11:45:20.518Z,31.07
2023-06-21T11:46:26.841Z,31.08
2023-06-21T11:47:30.391Z,31.05
2023-06-21T11:48:34.309Z,31.08
2023-06-21T11:49:40.767Z,31.12
2023-06-21T11:50:48.117Z,31.02
2023-06-21T11:52:05.071Z,30.89
2023-06-21T11:53:30.622Z,30.90
2023-06-21T11:54:37.365Z,30.90
2023-06-21T11:55:41.039Z,30.84
2023-06-21T11:56:44.989Z,30.75
2023-06-21T11:57:48.394Z,30.85
2023-06-21T11:58:52.275Z,30.92
2023-06-21T11:59:56.907Z,31.03
2023-06-21T12:00:59.973Z,31.11
2023-06-21T12:02:16.632Z,31.26
2023-06-21T12:03:20.606Z,31.36
2023-06-21T12:04:28.390Z,31.38
2023-06-21T12:05:51.532Z,31.39
2023-06-21T12:06:57.926Z,31.40
2023-06-21T12:08:01.641Z,31.50
2023-06-21T12:09:05.013Z,31.57
2023-06-21T12:10:08.587Z,31.55
2023-06-21T12:11:11.935Z,31.52
2023-06-21T12:12:15.823Z,31.59
2023-06-21T12:13:20.235Z,31.62
2023-06-21T12:14:23.630Z,31.64
2023-06-21T12:15:27.595Z,31.73
2023-06-21T12:16:32.534Z,31.71
2023-06-21T12:17:35.990Z,31.65
2023-06-21T12:18:39.777Z,31.68
2023-06-21T12:19:43.217Z,31.66
2023-06-21T12:20:47.159Z,31.44
2023-06-21T12:21:50.642Z,31.22
2023-06-21T12:22:54.060Z,31.20
2023-06-21T12:24:00.460Z,31.19
2023-06-21T12:25:03.728Z,31.22
2023-06-21T12:26:08.155Z,31.30
2023-06-21T12:27:14.832Z,31.33
2023-06-21T12:28:19.539Z,31.30
2023-06-21T12:29:22.769Z,31.26
2023-06-21T12:30:30.445Z,31.24
2023-06-21T12:31:34.038Z,31.20
2023-06-21T12:32:37.724Z,31.02
2023-06-21T12:33:44.273Z,30.81
2023-06-21T12:34:49.079Z,30.56
2023-06-21T12:35:52.709Z,30.57
2023-06-21T12:36:56.859Z,30.57
2023-06-21T12:38:00.502Z,30.57
2023-06-21T12:39:04.853Z,30.50
2023-06-21T12:40:09.083Z,30.48
2023-06-21T12:41:13.082Z,30.49
2023-06-21T12:42:16.758Z,30.50
2023-06-21T12:43:37.646Z,30.52
2023-06-21T12:44:40.952Z,30.46
2023-06-21T12:45:47.875Z,30.36
2023-06-21T12:46:52.308Z,30.27
2023-06-21T12:47:57.000Z,30.16
2023-06-21T12:49:01.223Z,30.10
2023-06-21T12:50:04.980Z,29.97
2023-06-21T12:51:08.926Z,29.83
2023-06-21T12:52:14.566Z,29.63
2023-06-21T12:53:25.707Z,29.32
2023-06-21T12:54:29.073Z,29.20
2023-06-21T12:55:32.714Z,29.06
2023-06-21T12:56:37.494Z,29.00
2023-06-21T12:57:41.601Z,28.90
2023-06-21T12:58:44.860Z,28.80
2023-06-21T12:59:47.973Z,28.80
2023-06-21T13:00:51.619Z,28.75
2023-06-21T13:01:57.496Z,28.73
2023-06-21T13:03:01.464Z,28.71
2023-06-21T13:04:12.396Z,28.70
2023-06-21T13:05:16.228Z,28.73
2023-06-21T13:06:19.954Z,28.76
2023-06-21T13:07:23.991Z,28.88
2023-06-21T13:08:27.771Z,28.95
2023-06-21T13:09:36.396Z,29.01
2023-06-21T13:10:39.335Z,29.07
2023-06-21T13:11:42.918Z,29.15
2023-06-21T13:12:46.303Z,29.24
2023-06-21T13:13:49.822Z,29.32
2023-06-21T13:14:53.383Z,29.34
2023-06-21T13:15:57.320Z,29.37
2023-06-21T13:17:00.643Z,29.38
2023-06-21T13:18:04.201Z,29.29
2023-06-21T13:19:09.261Z,29.26
2023-06-21T13:20:13.409Z,29.25
2023-06-21T13:21:17.946Z,29.28
2023-06-21T13:22:22.814Z,29.35
2023-06-21T13:23:27.394Z,29.37
2023-06-21T13:24:30.635Z,29.36
2023-06-21T13:25:34.316Z,29.40
2023-06-21T13:26:37.900Z,29.45
2023-06-21T13:27:41.595Z,29.49
2023-06-21T13:28:44.989Z,29.58
2023-06-21T13:29:48.257Z,29.44
2023-06-21T13:30:51.759Z,29.49
2023-06-21T13:31:55.953Z,29.53
2023-06-21T13:32:59.649Z,29.52
2023-06-21T13:34:03.013Z,29.55
2023-06-21T13:35:08.268Z,29.58
2023-06-21T13:36:11.501Z,29.58
2023-06-21T13:37:14.817Z,29.52
2023-06-21T13:38:18.548Z,29.48
2023-06-21T13:39:21.782Z,29.47
2023-06-21T13:40:25.303Z,29.44
2023-06-21T13:41:29.092Z,29.51
2023-06-21T13:42:33.073Z,29.56
2023-06-21T13:43:36.951Z,29.54
2023-06-21T13:44:40.721Z,29.62
2023-06-21T13:45:44.271Z,29.74
2023-06-21T13:46:47.413Z,29.76
2023-06-21T13:47:51.048Z,29.77
2023-06-21T13:48:54.806Z,29.76
2023-06-21T13:49:58.550Z,29.78
2023-06-21T13:51:01.792Z,29.77
2023-06-21T13:52:05.270Z,29.78
2023-06-21T13:53:08.793Z,29.77
2023-06-21T13:54:12.146Z,29.79
2023-06-21T13:55:15.320Z,29.81
2023-06-21T13:56:19.016Z,29.79
2023-06-21T13:57:22.627Z,29.76
2023-06-21T13:58:28.319Z,29.70
2023-06-21T13:59:31.773Z,29.65
2023-06-21T14:00:35.309Z,29.53
2023-06-21T14:01:38.605Z,29.43